createdAt,value
2023-05-10T00:02:30.010Z,65.46
2023-05-10T00:05:00.068Z,65.30
2023-05-10T00:07:30.185Z,65.39
2023-05-10T00:10:00.343Z,65.12
2023-05-10T00:12:30.520Z,65.18
2023-05-10T00:15:00.854Z,65.28
2023-05-10T00:17:31.124Z,65.10
2023-05-10T00:20:01.428Z,65.11
2023-05-10T00:22:31.646Z,65.25
2023-05-10T00:25:02.552Z,65.19
2023-05-10T00:27:32.733Z,65.20
2023-05-10T00:30:02.841Z,64.93
2023-05-10T00:32:33.212Z,64.84
2023-05-10T00:35:03.640Z,64.76
2023-05-10T00:37:34.029Z,64.67
2023-05-10T00:40:04.249Z,64.72
2023-05-10T00:42:34.498Z,64.66
2023-05-10T00:45:05.131Z,64.68
2023-05-10T00:47:35.925Z,64.44
2023-05-10T00:50:06.702Z,64.78
2023-05-10T00:52:37.148Z,64.50
2023-05-10T00:55:08.478Z,64.75
2023-05-10T00:57:38.970Z,64.71
2023-05-10T01:00:09.955Z,64.48
2023-05-10T01:02:40.453Z,64.64
2023-05-10T01:05:11.043Z,64.76
2023-05-10T01:07:41.612Z,64.49
2023-05-10T01:10:14.163Z,64.29
2023-05-10T01:12:48.877Z,64.34
2023-05-10T01:15:20.876Z,64.51
2023-05-10T01:17:52.633Z,64.21
2023-05-10T01:20:23.198Z,63.85
2023-05-10T01:23:16.429Z,63.89
2023-05-10T01:25:52.436Z,63.98
2023-05-10T01:28:56.173Z,63.89
2023-05-10T01:31:34.908Z,64.10
2023-05-10T01:34:19.892Z,64.08
2023-05-10T01:36:56.550Z,63.72
2023-05-10T01:39:42.004Z,63.77
2023-05-10T01:42:20.392Z,63.92
2023-05-10T01:45:13.717Z,64.30
2023-05-10T01:48:10.872Z,64.32
2023-05-10T01:50:46.790Z,64.17
2023-05-10T01:53:21.851Z,64.02
2023-05-10T01:55:55.884Z,64.24
2023-05-10T01:58:35.335Z,63.94
2023-05-10T02:01:08.120Z,64.02
2023-05-10T02:03:43.158Z,63.93
2023-05-10T02:06:16.506Z,64.03
2023-05-10T02:08:50.018Z,63.93
2023-05-10T02:11:22.235Z,64.00
2023-05-10T02:13:55.237Z,63.69
2023-05-10T02:16:34.153Z,63.63
2023-05-10T02:19:05.833Z,63.84
2023-05-10T02:21:37.227Z,63.69
2023-05-10T02:24:08.956Z,63.82
2023-05-10T02:26:41.800Z,64.13
2023-05-10T02:29:15.612Z,64.00
2023-05-10T02:31:46.925Z,64.10
2023-05-10T02:34:18.291Z,64.02
2023-05-10T02:36:49.620Z,63.77
2023-05-10T02:39:22.888Z,63.93
2023-05-10T02:41:54.098Z,63.88
2023-05-10T02:44:26.730Z,64.09
2023-05-10T02:46:59.202Z,63.84
2023-05-10T02:49:29.729Z,63.92
2023-05-10T02:52:07.886Z,64.05
2023-05-10T02:54:47.344Z,64.11
2023-05-10T02:57:23.905Z,64.08
2023-05-10T02:59:54.868Z,64.07
2023-05-10T03:02:25.096Z,64.35
2023-05-10T03:04:55.557Z,64.17
2023-05-10T03:07:26.680Z,64.17
2023-05-10T03:09:57.199Z,64.05
2023-05-10T03:12:54.260Z,63.68
2023-05-10T03:15:42.552Z,63.93
2023-05-10T03:18:34.660Z,63.68
2023-05-10T03:21:12.335Z,63.45
2023-05-10T03:23:54.201Z,63.39
2023-05-10T03:26:29.352Z,63.21
2023-05-10T03:29:11.830Z,63.19
2023-05-10T03:31:42.786Z,63.03
2023-05-10T03:34:13.039Z,63.33
2023-05-10T03:36:43.223Z,63.27
2023-05-10T03:39:13.876Z,63.38
2023-05-10T03:41:44.815Z,63.38
2023-05-10T03:44:15.126Z,63.29
2023-05-10T03:46:45.354Z,63.36
2023-05-10T03:49:16.727Z,63.50
2023-05-10T03:51:47.456Z,63.40
2023-05-10T03:54:18.203Z,63.40
2023-05-10T03:56:51.232Z,63.36
2023-05-10T03:59:23.397Z,63.12
2023-05-10T04:01:55.078Z,63.20
2023-05-10T04:04:27.473Z,63.12
2023-05-10T04:06:58.171Z,63.37
2023-05-10T04:09:28.617Z,63.21
2023-05-10T04:11:58.793Z,63.42
2023-05-10T04:14:28.797Z,63.54
2023-05-10T04:16:58.902Z,63.44
2023-05-10T04:19:36.123Z,63.77
2023-05-10T04:22:06.760Z,63.38
2023-05-10T04:24:37.053Z,63.48
2023-05-10T04:27:07.085Z,63.40
2023-05-10T04:29:38.123Z,63.51
2023-05-10T04:32:08.078Z,63.37
2023-05-10T04:34:38.071Z,63.40
2023-05-10T04:37:08.226Z,63.33
2023-05-10T04:39:40.291Z,63.25
2023-05-10T04:42:12.363Z,63.14
2023-05-10T04:44:42.986Z,63.19
2023-05-10T04:47:13.215Z,63.17
2023-05-10T04:49:43.423Z,63.03
2023-05-10T04:52:13.673Z,63.02
2023-05-10T04:54:43.952Z,62.87
2023-05-10T04:57:14.285Z,63.07
2023-05-10T04:59:44.899Z,62.99
2023-05-10T05:02:15.348Z,62.83
2023-05-10T05:04:45.623Z,62.81
2023-05-10T05:07:15.968Z,63.10
2023-05-10T05:09:46.022Z,62.93
2023-05-10T05:12:17.329Z,62.98
2023-05-10T05:14:47.467Z,63.28
2023-05-10T05:17:17.807Z,63.22
2023-05-10T05:19:47.909Z,63.20
2023-05-10T05:22:19.466Z,63.01
2023-05-10T05:24:50.065Z,63.03
2023-05-10T05:27:20.815Z,63.01
2023-05-10T05:29:50.921Z,63.38
2023-05-10T05:32:21.152Z,63.02
2023-05-10T05:34:51.545Z,63.18
2023-05-10T05:37:24.317Z,63.45
2023-05-10T05:39:54.822Z,62.83
2023-05-10T05:42:24.976Z,62.42
2023-05-10T05:44:55.030Z,62.60
2023-05-10T05:47:25.085Z,62.61
2023-05-10T05:49:55.108Z,62.54
2023-05-10T05:52:25.094Z,62.34
2023-05-10T05:54:55.315Z,62.46
2023-05-10T05:57:26.187Z,62.36
2023-05-10T05:59:56.369Z,62.88
2023-05-10T06:02:26.705Z,62.88
2023-05-10T06:04:56.917Z,62.99
2023-05-10T06:07:27.126Z,63.20
2023-05-10T06:09:57.282Z,63.13
2023-05-10T06:12:27.346Z,62.81
2023-05-10T06:14:57.508Z,62.73
2023-05-10T06:17:28.468Z,63.24
2023-05-10T06:19:59.308Z,62.76
2023-05-10T06:22:29.502Z,62.90
2023-05-10T06:24:59.647Z,62.97
2023-05-10T06:27:29.783Z,62.59
2023-05-10T06:30:11.702Z,62.62
2023-05-10T06:32:43.521Z,61.53
2023-05-10T06:35:13.846Z,60.98
2023-05-10T06:37:44.141Z,60.81
2023-05-10T06:40:15.241Z,60.75
2023-05-10T06:42:45.502Z,60.79
2023-05-10T06:45:16.535Z,61.16
2023-05-10T06:47:46.755Z,61.71
2023-05-10T06:50:16.958Z,61.29
2023-05-10T06:52:47.272Z,61.72
2023-05-10T06:55:17.651Z,61.45
2023-05-10T06:57:47.961Z,61.44
2023-05-10T07:00:19.166Z,61.37
2023-05-10T07:02:50.211Z,61.36
2023-05-10T07:05:20.868Z,61.16
2023-05-10T07:07:51.549Z,61.18
2023-05-10T07:10:21.813Z,59.94
2023-05-10T07:12:52.042Z,59.91
2023-05-10T07:15:22.346Z,59.67
2023-05-10T07:17:52.814Z,59.47
2023-05-10T07:20:23.407Z,59.36
2023-05-10T07:22:53.589Z,59.57
2023-05-10T07:25:23.591Z,59.22
2023-05-10T07:27:54.278Z,59.48
2023-05-10T07:30:24.642Z,59.48
2023-05-10T07:32:54.910Z,59.32
2023-05-10T07:35:24.981Z,59.64
2023-05-10T07:37:54.965Z,59.41
2023-05-10T07:40:25.237Z,59.47
2023-05-10T07:42:55.599Z,59.44
2023-05-10T07:45:26.507Z,59.36
2023-05-10T07:47:57.208Z,59.52
2023-05-10T07:50:27.545Z,59.50
2023-05-10T07:52:58.211Z,59.46
2023-05-10T07:55:28.412Z,59.38
2023-05-10T07:57:58.681Z,59.68
2023-05-10T08:00:29.035Z,59.39
2023-05-10T08:02:59.613Z,59.40
2023-05-10T08:05:29.928Z,59.34
2023-05-10T08:08:00.010Z,59.29
2023-05-10T08:10:30.028Z,59.28
2023-05-10T08:13:01.692Z,59.20
2023-05-10T08:15:31.887Z,58.89
2023-05-10T08:18:02.137Z,58.81
2023-05-10T08:20:32.307Z,58.89
2023-05-10T08:23:02.390Z,58.59
2023-05-10T08:25:32.598Z,58.59
2023-05-10T08:28:02.814Z,58.49
2023-05-10T08:30:33.371Z,58.55
2023-05-10T08:33:03.912Z,58.27
2023-05-10T08:35:36.564Z,58.16
2023-05-10T08:38:06.747Z,58.18
2023-05-10T08:40:39.244Z,58.41
2023-05-10T08:43:12.023Z,58.18
2023-05-10T08:45:51.416Z,58.46
2023-05-10T08:48:21.717Z,58.01
2023-05-10T08:50:54.420Z,57.69
2023-05-10T08:53:28.207Z,58.39
2023-05-10T08:55:59.424Z,57.56
2023-05-10T08:58:29.896Z,58.21
2023-05-10T09:01:01.666Z,57.67
2023-05-10T09:03:32.024Z,57.64
2023-05-10T09:06:02.421Z,57.73
2023-05-10T09:08:34.337Z,57.37
2023-05-10T09:11:06.229Z,57.61
2023-05-10T09:13:36.663Z,57.15
2023-05-10T09:16:20.411Z,56.98
2023-05-10T09:18:52.784Z,57.09
2023-05-10T09:21:23.950Z,57.60
2023-05-10T09:23:57.410Z,57.05
2023-05-10T09:26:28.215Z,57.13
2023-05-10T09:29:02.469Z,57.04
2023-05-10T09:31:51.431Z,57.35
2023-05-10T09:34:23.492Z,57.31
2023-05-10T09:37:04.055Z,56.94
2023-05-10T09:39:41.514Z,56.90
2023-05-10T09:42:13.388Z,56.80
2023-05-10T09:44:44.274Z,57.05
2023-05-10T09:47:20.824Z,57.07
2023-05-10T09:49:54.644Z,56.91
2023-05-10T09:52:25.001Z,56.81
2023-05-10T09:54:58.513Z,57.09
2023-05-10T09:57:29.448Z,57.05
2023-05-10T10:00:00.871Z,57.13
2023-05-10T10:02:35.219Z,56.97
2023-05-10T10:05:09.192Z,57.15
2023-05-10T10:07:39.873Z,57.24
2023-05-10T10:10:14.834Z,57.24
2023-05-10T10:12:45.526Z,57.40
2023-05-10T10:15:16.942Z,57.39
2023-05-10T10:17:48.317Z,57.55
2023-05-10T10:20:18.902Z,57.60
2023-05-10T10:22:50.617Z,57.16
2023-05-10T10:25:22.832Z,57.38
2023-05-10T10:27:56.192Z,57.19
2023-05-10T10:30:49.509Z,57.43
2023-05-10T10:33:55.396Z,57.59
2023-05-10T10:36:25.835Z,57.68
2023-05-10T10:38:56.770Z,57.63
2023-05-10T10:41:58.895Z,57.53
2023-05-10T10:44:36.956Z,57.71
2023-05-10T10:47:26.408Z,57.62
2023-05-10T10:50:08.250Z,57.54
2023-05-10T10:52:41.167Z,57.84
2023-05-10T10:55:18.325Z,57.86
2023-05-10T10:57:51.874Z,58.00
2023-05-10T11:00:23.747Z,58.13
2023-05-10T11:03:12.125Z,58.25
2023-05-10T11:05:45.326Z,58.53
2023-05-10T11:08:36.411Z,58.56
2023-05-10T11:11:12.970Z,58.52
2023-05-10T11:13:47.245Z,58.72
2023-05-10T11:16:27.800Z,58.84
2023-05-10T11:19:11.165Z,58.93
2023-05-10T11:22:17.105Z,59.04
2023-05-10T11:25:01.969Z,59.09
2023-05-10T11:27:32.441Z,58.95
2023-05-10T11:30:06.733Z,58.98
2023-05-10T11:32:37.240Z,58.91
2023-05-10T11:35:16.688Z,59.15
2023-05-10T11:37:51.611Z,59.52
2023-05-10T13:19:20.745Z,60.35
2023-05-10T13:21:51.023Z,59.77
2023-05-10T13:24:21.290Z,59.69
2023-05-10T13:26:51.881Z,59.36
2023-05-10T13:29:22.560Z,59.17
2023-05-10T13:31:53.277Z,58.96
2023-05-10T13:34:27.556Z,59.03
2023-05-10T13:36:59.463Z,58.84
2023-05-10T13:39:30.076Z,58.84
2023-05-10T13:42:00.395Z,58.80
2023-05-10T13:44:30.747Z,58.70
2023-05-10T13:47:01.283Z,58.42
2023-05-10T13:49:31.999Z,58.20
2023-05-10T13:52:02.340Z,58.12
2023-05-10T13:54:33.543Z,58.22
2023-05-10T13:57:04.024Z,57.89
2023-05-10T13:59:37.476Z,57.91
2023-05-10T14:02:07.910Z,57.61
2023-05-10T14:04:38.882Z,57.74
2023-05-10T14:07:09.840Z,57.98
2023-05-10T14:09:40.075Z,58.20
2023-05-10T14:12:10.302Z,58.26
2023-05-10T14:14:40.645Z,58.53
2023-05-10T14:17:12.406Z,59.03
2023-05-10T14:19:42.937Z,59.62
2023-05-10T14:22:13.280Z,59.91
2023-05-10T14:24:43.307Z,60.02
2023-05-10T14:27:13.604Z,60.27
2023-05-10T14:29:43.812Z,60.41
2023-05-10T14:32:14.192Z,60.61
2023-05-10T14:34:44.427Z,60.84
2023-05-10T14:37:15.265Z,61.22
2023-05-10T14:39:46.098Z,61.26
2023-05-10T14:42:16.270Z,61.33
2023-05-10T14:44:46.435Z,61.67
2023-05-10T14:47:16.631Z,62.09
2023-05-10T14:49:46.934Z,62.30
2023-05-10T14:55:05.598Z,62.58
2023-05-10T14:57:35.812Z,62.68
2023-05-10T15:00:07.153Z,62.54
2023-05-10T15:02:37.884Z,62.62
2023-05-10T15:05:09.349Z,62.81
2023-05-10T15:07:39.841Z,62.94
2023-05-10T15:10:10.506Z,62.88
2023-05-10T15:12:41.373Z,63.01
2023-05-10T15:15:11.731Z,63.13
2023-05-10T15:17:41.951Z,63.13
2023-05-10T15:20:12.524Z,63.07
2023-05-10T15:22:42.854Z,63.03
2023-05-10T15:25:13.210Z,63.04
2023-05-10T15:27:43.495Z,63.10
2023-05-10T15:30:14.236Z,62.68
2023-05-10T15:32:44.915Z,62.61
2023-05-10T15:35:15.420Z,62.72
2023-05-10T15:37:45.800Z,62.62
2023-05-10T15:40:15.886Z,62.48
2023-05-10T15:42:45.897Z,62.54
2023-05-10T15:45:16.635Z,62.37
2023-05-10T15:47:47.414Z,62.35
2023-05-10T15:50:19.508Z,62.47
2023-05-10T15:52:49.902Z,62.50
2023-05-10T15:55:20.274Z,62.42
2023-05-10T15:57:51.153Z,62.45
2023-05-10T16:00:21.534Z,62.64
2023-05-10T16:02:52.217Z,62.64
2023-05-10T16:05:22.698Z,62.58
2023-05-10T16:07:53.035Z,62.52
2023-05-10T16:10:23.227Z,62.60
2023-05-10T16:12:53.490Z,62.67
2023-05-10T16:15:26.454Z,62.81
2023-05-10T16:17:56.987Z,62.74
2023-05-10T16:20:27.419Z,62.92
2023-05-10T16:22:58.440Z,62.92
2023-05-10T16:25:28.753Z,62.96
2023-05-10T16:27:58.903Z,63.12
2023-05-10T16:30:31.500Z,63.29
2023-05-10T16:33:03.970Z,63.18
2023-05-10T16:35:34.362Z,63.71
2023-05-10T16:38:04.408Z,63.71
2023-05-10T16:40:35.822Z,63.50
2023-05-10T16:43:06.000Z,63.60
2023-05-10T16:45:36.141Z,63.50
2023-05-10T16:48:06.308Z,63.53
2023-05-10T16:50:36.556Z,63.74
2023-05-10T16:53:06.620Z,63.58
2023-05-10T16:55:36.616Z,63.30
2023-05-10T16:58:06.768Z,63.37
2023-05-10T17:00:36.953Z,63.25
2023-05-10T17:03:07.294Z,63.26
2023-05-10T17:05:37.822Z,63.18
2023-05-10T17:08:08.047Z,63.30
2023-05-10T17:10:41.915Z,63.24
2023-05-10T17:13:12.104Z,63.01
2023-05-10T17:15:42.328Z,62.58
2023-05-10T17:18:12.945Z,62.87
2023-05-10T17:20:45.960Z,63.12
2023-05-10T17:23:16.112Z,62.59
2023-05-10T17:25:46.174Z,62.25
2023-05-10T17:28:16.299Z,62.21
2023-05-10T17:30:46.880Z,62.13
2023-05-10T17:33:17.130Z,62.13
2023-05-10T17:35:48.777Z,61.94
2023-05-10T17:38:19.300Z,61.76
2023-05-10T17:40:49.586Z,61.73
2023-05-10T17:43:19.871Z,61.46
2023-05-10T17:45:53.352Z,61.74
2023-05-10T17:48:23.545Z,61.48
2023-05-10T17:50:54.177Z,61.64
2023-05-10T17:53:25.287Z,61.53
2023-05-10T17:55:56.244Z,61.81
2023-05-10T17:58:26.437Z,61.89
2023-05-10T18:00:57.277Z,61.65
2023-05-10T18:03:27.643Z,61.93
2023-05-10T18:05:58.033Z,61.85
2023-05-10T18:08:29.718Z,61.82
2023-05-10T18:11:00.380Z,61.83
2023-05-10T18:13:30.879Z,61.89
2023-05-10T18:16:01.749Z,61.84
2023-05-10T18:18:32.207Z,61.93
2023-05-10T18:21:03.838Z,61.89
2023-05-10T18:23:34.293Z,61.92
2023-05-10T18:26:05.569Z,61.89
2023-05-10T18:28:35.931Z,62.02
2023-05-10T18:31:06.229Z,62.14
2023-05-10T18:33:36.617Z,62.11
2023-05-10T18:36:07.426Z,61.87
2023-05-10T18:38:37.806Z,62.20
2023-05-10T18:41:09.054Z,62.06
2023-05-10T18:43:38.994Z,61.94
2023-05-10T18:46:09.029Z,62.04
2023-05-10T18:48:39.281Z,62.01
2023-05-10T18:51:09.758Z,62.18
2023-05-10T18:53:40.120Z,62.04
2023-05-10T18:56:10.482Z,62.10
2023-05-10T18:58:40.915Z,62.06
2023-05-10T19:01:11.899Z,61.93
2023-05-10T19:03:41.965Z,61.98
2023-05-10T19:06:12.532Z,61.85
2023-05-10T19:08:42.724Z,62.03
2023-05-10T19:11:13.073Z,61.96
2023-05-10T19:13:43.099Z,61.78
2023-05-10T19:16:18.674Z,61.94
2023-05-10T19:18:52.191Z,61.88
2023-05-10T19:21:23.209Z,61.98
2023-05-10T19:23:53.528Z,61.90
2023-05-10T19:26:25.794Z,61.77
2023-05-10T19:28:56.840Z,62.09
2023-05-10T19:31:27.633Z,62.10
2023-05-10T19:34:00.649Z,62.10
2023-05-10T19:36:31.155Z,62.00
2023-05-10T19:39:02.477Z,62.22
2023-05-10T19:41:32.652Z,62.11
2023-05-10T19:44:02.859Z,62.15
2023-05-10T19:46:33.711Z,62.15
2023-05-10T19:49:04.045Z,62.32
2023-05-10T19:51:34.211Z,62.31
2023-05-10T19:54:04.498Z,62.25
2023-05-10T19:56:34.800Z,62.23
2023-05-10T19:59:07.682Z,62.20
2023-05-10T20:01:38.076Z,62.54
2023-05-10T20:04:08.636Z,62.56
2023-05-10T20:06:38.957Z,62.63
2023-05-10T20:09:09.573Z,62.73
2023-05-10T20:11:39.827Z,62.75
2023-05-10T20:14:11.343Z,62.80
2023-05-10T20:16:41.578Z,62.87
2023-05-10T20:19:11.892Z,62.92
2023-05-10T20:21:42.255Z,62.91
2023-05-10T20:24:12.606Z,62.99
2023-05-10T20:26:43.542Z,63.19
2023-05-10T20:29:15.640Z,63.19
2023-05-10T20:31:45.838Z,63.28
2023-05-10T20:34:16.136Z,63.37
2023-05-10T20:36:46.371Z,63.56
2023-05-10T20:39:17.336Z,63.38
2023-05-10T20:41:47.397Z,63.53
2023-05-10T20:44:18.105Z,63.81
2023-05-10T20:46:48.395Z,63.74
2023-05-10T20:49:18.398Z,63.83
2023-05-10T20:51:48.744Z,63.96
2023-05-10T20:54:18.965Z,63.96
2023-05-10T20:56:49.176Z,64.24
2023-05-10T20:59:20.849Z,64.16
2023-05-10T21:01:51.189Z,64.24
2023-05-10T21:04:21.516Z,64.31
2023-05-10T21:06:51.981Z,64.29
2023-05-10T21:09:22.007Z,64.28
2023-05-10T21:11:53.317Z,64.52
2023-05-10T21:14:23.384Z,64.24
2023-05-10T21:16:53.667Z,64.55
2023-05-10T21:19:24.309Z,64.57
2023-05-10T21:21:54.525Z,64.56
2023-05-10T21:24:25.963Z,64.58
2023-05-10T21:26:56.163Z,64.53
2023-05-10T21:29:26.478Z,64.64
2023-05-10T21:31:56.740Z,64.69
2023-05-10T21:34:26.976Z,64.74
2023-05-10T21:36:57.425Z,64.81
2023-05-10T21:39:27.694Z,64.79
2023-05-10T21:41:58.461Z,65.07
2023-05-10T21:44:28.670Z,65.02
2023-05-10T21:46:58.915Z,64.99
2023-05-10T21:49:29.433Z,65.03
2023-05-10T21:51:59.571Z,65.10
2023-05-10T21:54:29.863Z,65.22
2023-05-10T21:57:00.994Z,65.18
2023-05-10T21:59:30.879Z,65.33
2023-05-10T22:02:00.877Z,65.36
2023-05-10T22:04:31.156Z,65.38
2023-05-10T22:07:01.732Z,65.33
2023-05-10T22:09:31.961Z,65.49
2023-05-10T22:12:02.299Z,65.33
2023-05-10T22:14:33.089Z,65.44
2023-05-10T22:17:03.441Z,65.67
2023-05-10T22:19:33.689Z,65.48
2023-05-10T22:22:03.800Z,65.68
2023-05-10T22:24:34.237Z,66.07
2023-05-10T22:27:05.401Z,66.22
2023-05-10T22:29:35.497Z,66.14
2023-05-10T22:32:08.033Z,66.53
2023-05-10T22:34:38.440Z,66.46
2023-05-10T22:37:08.704Z,66.46
2023-05-10T22:39:38.948Z,66.47
2023-05-10T22:42:09.026Z,66.46
2023-05-10T22:44:39.865Z,66.55
2023-05-10T22:47:11.277Z,66.69
2023-05-10T22:49:41.546Z,66.63
2023-05-10T22:52:13.628Z,66.89
2023-05-10T22:55:07.994Z,66.73
2023-05-10T22:57:38.632Z,66.96
2023-05-10T23:00:09.789Z,67.05
2023-05-10T23:02:39.960Z,67.37
2023-05-10T23:05:10.842Z,67.36
2023-05-10T23:07:41.006Z,67.56
2023-05-10T23:10:11.366Z,67.61
2023-05-10T23:12:41.561Z,67.61
2023-05-10T23:15:12.121Z,67.74
2023-05-10T23:17:42.406Z,67.90
2023-05-10T23:20:13.344Z,67.58
2023-05-10T23:22:43.574Z,67.72
2023-05-10T23:25:14.803Z,67.58
2023-05-10T23:27:44.979Z,67.76
2023-05-10T23:30:15.652Z,67.86
2023-05-10T23:32:46.184Z,67.97
2023-05-10T23:35:16.594Z,67.91
2023-05-10T23:37:46.712Z,68.08
2023-05-10T23:40:17.932Z,68.30
2023-05-10T23:42:48.396Z,68.56
2023-05-10T23:45:18.719Z,68.36
2023-05-10T23:47:48.984Z,68.52
2023-05-10T23:50:19.533Z,68.40
2023-05-10T23:52:49.928Z,68.68
2023-05-10T23:55:20.264Z,68.77
2023-05-10T23:57:50.552Z,68.68
